Naponee, Nebraska
Current Conditions -  °F | °C
As of 4:15 PM on Thursday 27 Nov 2014 (Local Time) from KHDE Reporting Station
Clear Clear  
Wind Chill: 37°   Ceiling: Unl
Heat Index: 44°   Visibility: 10mi
Dew Point: 20°   Wind: 16mph
Humidity: 39%   Direction: 180°S
Pressure: 30.11"   Gusts: 22mph
Location:  40.08°N, 99.14°W
Report Text: KHDE 272215Z AUTO 18014G19KT 10SM CLR 07/M06 A3011 RMK AO2 T00661065
Loading
Personal Weather Stations






























Interactive Weather Map New forecast layout! Learn more

10-Day Weather Forecast

Advertisements
Track Severe Weather on mobile